sensor_id;sensor_type;location;lat;lon;timestamp;P1;durP1;ratioP1;P2;durP2;ratioP2
27408;SDS011;20413;50.782;7.152;2022-08-19T00:01:27;17.90;;;13.77;;
27408;SDS011;20413;50.782;7.152;2022-08-19T00:03:54;19.20;;;15.05;;
27408;SDS011;20413;50.782;7.152;2022-08-19T00:06:24;17.15;;;13.88;;
27408;SDS011;20413;50.782;7.152;2022-08-19T00:08:51;21.55;;;15.35;;
27408;SDS011;20413;50.782;7.152;2022-08-19T00:11:16;19.75;;;14.75;;
27408;SDS011;20413;50.782;7.152;2022-08-19T00:13:42;22.33;;;15.90;;
27408;SDS011;20413;50.782;7.152;2022-08-19T00:16:08;22.75;;;15.38;;
27408;SDS011;20413;50.782;7.152;2022-08-19T00:18:33;21.38;;;15.07;;
27408;SDS011;20413;50.782;7.152;2022-08-19T00:20:59;18.55;;;14.05;;
27408;SDS011;20413;50.782;7.152;2022-08-19T00:23:26;18.88;;;14.88;;
27408;SDS011;20413;50.782;7.152;2022-08-19T00:25:52;25.58;;;15.27;;
27408;SDS011;20413;50.782;7.152;2022-08-19T00:28:18;20.35;;;15.68;;
27408;SDS011;20413;50.782;7.152;2022-08-19T00:30:45;20.93;;;16.17;;
27408;SDS011;20413;50.782;7.152;2022-08-19T00:33:11;23.98;;;16.30;;
27408;SDS011;20413;50.782;7.152;2022-08-19T00:35:36;22.33;;;16.48;;
27408;SDS011;20413;50.782;7.152;2022-08-19T00:38:03;21.75;;;16.00;;
27408;SDS011;20413;50.782;7.152;2022-08-19T00:40:30;23.40;;;16.20;;
27408;SDS011;20413;50.782;7.152;2022-08-19T00:42:56;18.90;;;14.90;;
27408;SDS011;20413;50.782;7.152;2022-08-19T00:45:22;21.55;;;15.80;;
27408;SDS011;20413;50.782;7.152;2022-08-19T00:47:50;21.77;;;15.43;;
27408;SDS011;20413;50.782;7.152;2022-08-19T00:50:17;19.05;;;16.10;;
27408;SDS011;20413;50.782;7.152;2022-08-19T00:52:45;24.15;;;17.77;;
27408;SDS011;20413;50.782;7.152;2022-08-19T00:55:19;22.33;;;17.98;;
27408;SDS011;20413;50.782;7.152;2022-08-19T00:57:48;21.10;;;16.75;;
27408;SDS011;20413;50.782;7.152;2022-08-19T01:00:24;23.15;;;16.38;;
27408;SDS011;20413;50.782;7.152;2022-08-19T01:02:51;21.80;;;16.90;;
27408;SDS011;20413;50.782;7.152;2022-08-19T01:05:18;23.08;;;17.63;;
27408;SDS011;20413;50.782;7.152;2022-08-19T01:07:48;22.73;;;17.23;;
27408;SDS011;20413;50.782;7.152;2022-08-19T01:10:16;21.67;;;17.07;;
27408;SDS011;20413;50.782;7.152;2022-08-19T01:12:45;23.27;;;17.23;;
27408;SDS011;20413;50.782;7.152;2022-08-19T01:15:14;21.23;;;16.38;;
27408;SDS011;20413;50.782;7.152;2022-08-19T01:17:43;24.42;;;17.83;;
27408;SDS011;20413;50.782;7.152;2022-08-19T01:20:15;21.13;;;17.08;;
27408;SDS011;20413;50.782;7.152;2022-08-19T01:22:45;25.73;;;16.73;;
27408;SDS011;20413;50.782;7.152;2022-08-19T01:25:17;22.45;;;16.38;;
27408;SDS011;20413;50.782;7.152;2022-08-19T01:27:47;21.13;;;16.77;;
27408;SDS011;20413;50.782;7.152;2022-08-19T01:30:15;24.65;;;17.15;;
27408;SDS011;20413;50.782;7.152;2022-08-19T01:32:43;26.17;;;17.48;;
27408;SDS011;20413;50.782;7.152;2022-08-19T01:35:09;27.55;;;17.63;;
27408;SDS011;20413;50.782;7.152;2022-08-19T01:40:43;24.60;;;17.38;;
27408;SDS011;20413;50.782;7.152;2022-08-19T01:43:09;26.45;;;18.58;;
27408;SDS011;20413;50.782;7.152;2022-08-19T01:45:35;25.40;;;18.90;;
27408;SDS011;20413;50.782;7.152;2022-08-19T01:48:01;28.65;;;18.13;;
27408;SDS011;20413;50.782;7.152;2022-08-19T01:50:27;22.77;;;18.05;;
27408;SDS011;20413;50.782;7.152;2022-08-19T01:52:55;22.80;;;18.13;;
27408;SDS011;20413;50.782;7.152;2022-08-19T01:55:21;22.85;;;17.65;;
27408;SDS011;20413;50.782;7.152;2022-08-19T01:57:49;26.90;;;17.45;;
27408;SDS011;20413;50.782;7.152;2022-08-19T02:00:19;23.58;;;17.75;;
27408;SDS011;20413;50.782;7.152;2022-08-19T02:02:47;21.75;;;17.05;;
27408;SDS011;20413;50.782;7.152;2022-08-19T02:05:13;23.20;;;16.52;;
27408;SDS011;20413;50.782;7.152;2022-08-19T02:07:40;23.60;;;17.73;;
27408;SDS011;20413;50.782;7.152;2022-08-19T02:10:07;22.77;;;16.65;;
27408;SDS011;20413;50.782;7.152;2022-08-19T02:12:37;22.38;;;17.08;;
27408;SDS011;20413;50.782;7.152;2022-08-19T02:15:03;22.08;;;17.05;;
27408;SDS011;20413;50.782;7.152;2022-08-19T02:17:30;23.40;;;16.15;;
27408;SDS011;20413;50.782;7.152;2022-08-19T02:19:56;21.77;;;16.77;;
27408;SDS011;20413;50.782;7.152;2022-08-19T02:22:23;19.63;;;16.58;;
27408;SDS011;20413;50.782;7.152;2022-08-19T02:24:50;21.02;;;17.08;;
27408;SDS011;20413;50.782;7.152;2022-08-19T02:27:16;22.92;;;17.85;;
27408;SDS011;20413;50.782;7.152;2022-08-19T02:29:42;21.88;;;16.58;;
27408;SDS011;20413;50.782;7.152;2022-08-19T02:32:10;22.52;;;16.17;;
27408;SDS011;20413;50.782;7.152;2022-08-19T02:34:35;22.98;;;17.88;;
27408;SDS011;20413;50.782;7.152;2022-08-19T02:37:01;23.25;;;17.90;;
27408;SDS011;20413;50.782;7.152;2022-08-19T02:39:26;21.27;;;16.30;;
27408;SDS011;20413;50.782;7.152;2022-08-19T02:41:52;23.08;;;17.90;;
27408;SDS011;20413;50.782;7.152;2022-08-19T02:44:18;20.05;;;16.25;;
27408;SDS011;20413;50.782;7.152;2022-08-19T02:46:44;21.20;;;16.50;;
27408;SDS011;20413;50.782;7.152;2022-08-19T02:51:39;21.08;;;16.52;;
27408;SDS011;20413;50.782;7.152;2022-08-19T02:56:37;21.65;;;16.55;;
27408;SDS011;20413;50.782;7.152;2022-08-19T02:59:04;21.88;;;16.35;;
27408;SDS011;20413;50.782;7.152;2022-08-19T03:01:34;22.60;;;17.38;;
27408;SDS011;20413;50.782;7.152;2022-08-19T03:04:02;20.63;;;15.25;;
27408;SDS011;20413;50.782;7.152;2022-08-19T03:06:29;20.73;;;16.25;;
27408;SDS011;20413;50.782;7.152;2022-08-19T03:08:55;21.15;;;16.42;;
27408;SDS011;20413;50.782;7.152;2022-08-19T03:11:25;21.08;;;16.73;;
27408;SDS011;20413;50.782;7.152;2022-08-19T03:13:53;20.20;;;16.30;;
27408;SDS011;20413;50.782;7.152;2022-08-19T03:16:20;25.08;;;16.65;;
27408;SDS011;20413;50.782;7.152;2022-08-19T03:18:49;20.10;;;16.63;;
27408;SDS011;20413;50.782;7.152;2022-08-19T03:21:18;22.92;;;16.00;;
27408;SDS011;20413;50.782;7.152;2022-08-19T03:23:46;18.92;;;15.57;;
27408;SDS011;20413;50.782;7.152;2022-08-19T03:26:13;19.73;;;16.08;;
27408;SDS011;20413;50.782;7.152;2022-08-19T03:28:42;20.35;;;16.25;;
27408;SDS011;20413;50.782;7.152;2022-08-19T03:31:11;19.27;;;16.20;;
27408;SDS011;20413;50.782;7.152;2022-08-19T03:36:08;22.77;;;16.48;;
27408;SDS011;20413;50.782;7.152;2022-08-19T03:38:37;24.23;;;17.45;;
27408;SDS011;20413;50.782;7.152;2022-08-19T03:41:06;22.45;;;16.60;;
27408;SDS011;20413;50.782;7.152;2022-08-19T03:43:34;22.85;;;17.73;;
27408;SDS011;20413;50.782;7.152;2022-08-19T03:46:05;23.58;;;17.80;;
27408;SDS011;20413;50.782;7.152;2022-08-19T03:48:33;22.42;;;17.25;;
27408;SDS011;20413;50.782;7.152;2022-08-19T03:50:59;26.23;;;16.77;;
27408;SDS011;20413;50.782;7.152;2022-08-19T03:53:26;21.98;;;17.75;;
27408;SDS011;20413;50.782;7.152;2022-08-19T03:55:52;26.55;;;18.13;;
27408;SDS011;20413;50.782;7.152;2022-08-19T03:58:18;22.77;;;17.77;;
27408;SDS011;20413;50.782;7.152;2022-08-19T04:00:44;27.20;;;18.08;;
27408;SDS011;20413;50.782;7.152;2022-08-19T04:03:10;24.02;;;18.58;;
27408;SDS011;20413;50.782;7.152;2022-08-19T04:05:36;23.05;;;18.33;;
27408;SDS011;20413;50.782;7.152;2022-08-19T04:08:03;27.08;;;18.45;;
27408;SDS011;20413;50.782;7.152;2022-08-19T04:10:30;27.67;;;20.30;;
27408;SDS011;20413;50.782;7.152;2022-08-19T04:13:00;26.05;;;18.52;;
27408;SDS011;20413;50.782;7.152;2022-08-19T04:15:25;25.77;;;18.17;;
27408;SDS011;20413;50.782;7.152;2022-08-19T04:17:52;23.00;;;17.85;;
27408;SDS011;20413;50.782;7.152;2022-08-19T04:20:18;22.85;;;16.70;;
27408;SDS011;20413;50.782;7.152;2022-08-19T04:22:43;21.73;;;17.48;;
27408;SDS011;20413;50.782;7.152;2022-08-19T04:25:09;21.23;;;16.67;;
27408;SDS011;20413;50.782;7.152;2022-08-19T04:27:35;23.15;;;16.63;;
27408;SDS011;20413;50.782;7.152;2022-08-19T04:30:00;24.00;;;17.40;;
27408;SDS011;20413;50.782;7.152;2022-08-19T04:32:26;22.55;;;16.42;;
27408;SDS011;20413;50.782;7.152;2022-08-19T04:34:52;27.15;;;17.30;;
27408;SDS011;20413;50.782;7.152;2022-08-19T04:37:22;25.48;;;17.13;;
27408;SDS011;20413;50.782;7.152;2022-08-19T04:39:49;23.00;;;18.00;;
27408;SDS011;20413;50.782;7.152;2022-08-19T04:42:34;23.35;;;16.85;;
27408;SDS011;20413;50.782;7.152;2022-08-19T04:45:05;21.00;;;16.55;;
27408;SDS011;20413;50.782;7.152;2022-08-19T04:47:35;23.48;;;17.52;;
27408;SDS011;20413;50.782;7.152;2022-08-19T04:50:04;21.58;;;16.67;;
27408;SDS011;20413;50.782;7.152;2022-08-19T04:52:31;22.50;;;17.65;;
27408;SDS011;20413;50.782;7.152;2022-08-19T04:54:57;26.63;;;17.42;;
27408;SDS011;20413;50.782;7.152;2022-08-19T04:57:23;20.38;;;15.90;;
27408;SDS011;20413;50.782;7.152;2022-08-19T04:59:49;24.27;;;17.20;;
27408;SDS011;20413;50.782;7.152;2022-08-19T05:02:18;22.00;;;16.25;;
27408;SDS011;20413;50.782;7.152;2022-08-19T05:04:44;22.05;;;16.85;;
27408;SDS011;20413;50.782;7.152;2022-08-19T05:07:10;21.13;;;16.38;;
27408;SDS011;20413;50.782;7.152;2022-08-19T05:09:36;23.33;;;16.10;;
27408;SDS011;20413;50.782;7.152;2022-08-19T05:12:02;19.90;;;15.65;;
27408;SDS011;20413;50.782;7.152;2022-08-19T05:14:27;19.35;;;15.27;;
27408;SDS011;20413;50.782;7.152;2022-08-19T05:16:53;19.70;;;15.55;;
27408;SDS011;20413;50.782;7.152;2022-08-19T05:19:19;19.45;;;15.35;;
27408;SDS011;20413;50.782;7.152;2022-08-19T05:22:03;22.45;;;17.42;;
27408;SDS011;20413;50.782;7.152;2022-08-19T05:24:47;19.17;;;15.18;;
27408;SDS011;20413;50.782;7.152;2022-08-19T05:27:13;20.85;;;16.05;;
27408;SDS011;20413;50.782;7.152;2022-08-19T05:29:39;19.60;;;15.38;;
27408;SDS011;20413;50.782;7.152;2022-08-19T05:32:11;20.70;;;15.93;;
27408;SDS011;20413;50.782;7.152;2022-08-19T05:35:01;21.38;;;15.82;;
27408;SDS011;20413;50.782;7.152;2022-08-19T05:37:27;21.75;;;16.73;;
27408;SDS011;20413;50.782;7.152;2022-08-19T05:39:53;25.38;;;17.73;;
27408;SDS011;20413;50.782;7.152;2022-08-19T05:42:19;26.08;;;18.35;;
27408;SDS011;20413;50.782;7.152;2022-08-19T05:44:47;23.77;;;17.75;;
27408;SDS011;20413;50.782;7.152;2022-08-19T05:47:14;23.98;;;17.58;;
27408;SDS011;20413;50.782;7.152;2022-08-19T05:49:40;22.63;;;17.67;;
27408;SDS011;20413;50.782;7.152;2022-08-19T05:52:08;25.05;;;18.48;;
27408;SDS011;20413;50.782;7.152;2022-08-19T05:54:39;25.52;;;18.42;;
27408;SDS011;20413;50.782;7.152;2022-08-19T05:57:06;26.23;;;17.75;;
27408;SDS011;20413;50.782;7.152;2022-08-19T05:59:32;26.88;;;19.92;;
27408;SDS011;20413;50.782;7.152;2022-08-19T06:02:00;26.98;;;20.15;;
27408;SDS011;20413;50.782;7.152;2022-08-19T06:04:26;29.48;;;20.73;;
27408;SDS011;20413;50.782;7.152;2022-08-19T06:06:52;29.52;;;22.13;;
27408;SDS011;20413;50.782;7.152;2022-08-19T06:09:19;36.45;;;24.23;;
27408;SDS011;20413;50.782;7.152;2022-08-19T06:11:47;32.65;;;24.00;;
27408;SDS011;20413;50.782;7.152;2022-08-19T06:14:18;31.77;;;22.60;;
27408;SDS011;20413;50.782;7.152;2022-08-19T06:16:46;30.02;;;20.83;;
27408;SDS011;20413;50.782;7.152;2022-08-19T06:19:13;22.52;;;18.20;;
27408;SDS011;20413;50.782;7.152;2022-08-19T06:21:41;22.77;;;17.08;;
27408;SDS011;20413;50.782;7.152;2022-08-19T06:24:10;20.45;;;16.95;;
27408;SDS011;20413;50.782;7.152;2022-08-19T06:26:39;27.58;;;19.85;;
27408;SDS011;20413;50.782;7.152;2022-08-19T06:29:07;29.25;;;21.85;;
27408;SDS011;20413;50.782;7.152;2022-08-19T06:31:34;33.90;;;23.38;;
27408;SDS011;20413;50.782;7.152;2022-08-19T06:34:01;31.38;;;22.88;;
27408;SDS011;20413;50.782;7.152;2022-08-19T06:36:30;37.53;;;25.10;;
27408;SDS011;20413;50.782;7.152;2022-08-19T06:39:03;37.55;;;24.00;;
27408;SDS011;20413;50.782;7.152;2022-08-19T06:41:30;34.03;;;25.40;;
27408;SDS011;20413;50.782;7.152;2022-08-19T06:43:59;33.63;;;24.30;;
27408;SDS011;20413;50.782;7.152;2022-08-19T06:46:25;34.17;;;25.17;;
27408;SDS011;20413;50.782;7.152;2022-08-19T06:48:51;36.95;;;25.25;;
27408;SDS011;20413;50.782;7.152;2022-08-19T06:51:18;38.65;;;26.15;;
27408;SDS011;20413;50.782;7.152;2022-08-19T06:53:47;36.72;;;24.75;;
27408;SDS011;20413;50.782;7.152;2022-08-19T06:56:14;36.58;;;24.25;;
27408;SDS011;20413;50.782;7.152;2022-08-19T06:58:42;47.22;;;28.15;;
27408;SDS011;20413;50.782;7.152;2022-08-19T07:01:08;40.35;;;26.55;;
27408;SDS011;20413;50.782;7.152;2022-08-19T07:03:35;32.40;;;24.75;;
27408;SDS011;20413;50.782;7.152;2022-08-19T07:06:07;36.20;;;25.33;;
27408;SDS011;20413;50.782;7.152;2022-08-19T07:08:37;33.58;;;24.27;;
27408;SDS011;20413;50.782;7.152;2022-08-19T07:11:06;36.72;;;24.60;;
27408;SDS011;20413;50.782;7.152;2022-08-19T07:13:33;35.90;;;23.70;;
27408;SDS011;20413;50.782;7.152;2022-08-19T07:16:05;39.53;;;25.02;;
27408;SDS011;20413;50.782;7.152;2022-08-19T07:18:41;36.65;;;25.95;;
27408;SDS011;20413;50.782;7.152;2022-08-19T07:21:08;37.90;;;24.75;;
27408;SDS011;20413;50.782;7.152;2022-08-19T07:23:36;35.05;;;24.77;;
27408;SDS011;20413;50.782;7.152;2022-08-19T07:26:09;33.50;;;24.30;;
27408;SDS011;20413;50.782;7.152;2022-08-19T07:28:37;34.03;;;24.75;;
27408;SDS011;20413;50.782;7.152;2022-08-19T07:31:04;37.83;;;24.30;;
27408;SDS011;20413;50.782;7.152;2022-08-19T07:33:31;34.17;;;23.55;;
27408;SDS011;20413;50.782;7.152;2022-08-19T07:35:58;41.42;;;24.48;;
27408;SDS011;20413;50.782;7.152;2022-08-19T07:38:24;38.15;;;25.35;;
27408;SDS011;20413;50.782;7.152;2022-08-19T07:40:50;38.35;;;24.98;;
27408;SDS011;20413;50.782;7.152;2022-08-19T07:43:16;35.55;;;24.50;;
27408;SDS011;20413;50.782;7.152;2022-08-19T07:45:47;40.85;;;24.92;;
27408;SDS011;20413;50.782;7.152;2022-08-19T07:48:13;32.75;;;23.23;;
27408;SDS011;20413;50.782;7.152;2022-08-19T07:50:39;33.53;;;23.83;;
27408;SDS011;20413;50.782;7.152;2022-08-19T07:53:05;32.28;;;23.45;;
27408;SDS011;20413;50.782;7.152;2022-08-19T07:55:30;37.65;;;25.63;;
27408;SDS011;20413;50.782;7.152;2022-08-19T07:57:56;28.25;;;20.83;;
27408;SDS011;20413;50.782;7.152;2022-08-19T08:00:22;29.40;;;22.75;;
27408;SDS011;20413;50.782;7.152;2022-08-19T08:02:48;35.13;;;23.48;;
27408;SDS011;20413;50.782;7.152;2022-08-19T08:05:16;32.25;;;24.65;;
27408;SDS011;20413;50.782;7.152;2022-08-19T08:08:00;34.13;;;23.95;;
27408;SDS011;20413;50.782;7.152;2022-08-19T08:10:44;31.83;;;22.38;;
27408;SDS011;20413;50.782;7.152;2022-08-19T08:13:10;31.70;;;22.88;;
27408;SDS011;20413;50.782;7.152;2022-08-19T08:15:37;33.63;;;21.95;;
27408;SDS011;20413;50.782;7.152;2022-08-19T08:18:03;37.93;;;21.53;;
27408;SDS011;20413;50.782;7.152;2022-08-19T08:20:29;36.40;;;21.30;;
27408;SDS011;20413;50.782;7.152;2022-08-19T08:22:55;25.58;;;19.42;;
27408;SDS011;20413;50.782;7.152;2022-08-19T08:25:39;25.58;;;17.88;;
27408;SDS011;20413;50.782;7.152;2022-08-19T08:28:05;25.88;;;16.73;;
27408;SDS011;20413;50.782;7.152;2022-08-19T08:30:33;19.42;;;14.05;;
27408;SDS011;20413;50.782;7.152;2022-08-19T08:33:00;16.88;;;12.82;;
27408;SDS011;20413;50.782;7.152;2022-08-19T08:35:26;15.98;;;11.82;;
27408;SDS011;20413;50.782;7.152;2022-08-19T08:37:52;19.52;;;12.18;;
27408;SDS011;20413;50.782;7.152;2022-08-19T08:40:29;22.70;;;14.53;;
27408;SDS011;20413;50.782;7.152;2022-08-19T08:43:07;18.98;;;13.40;;
27408;SDS011;20413;50.782;7.152;2022-08-19T08:45:52;20.00;;;12.52;;
27408;SDS011;20413;50.782;7.152;2022-08-19T08:48:30;17.90;;;11.60;;
27408;SDS011;20413;50.782;7.152;2022-08-19T08:51:19;17.33;;;13.13;;
27408;SDS011;20413;50.782;7.152;2022-08-19T08:53:47;16.80;;;11.60;;
27408;SDS011;20413;50.782;7.152;2022-08-19T08:56:16;12.68;;;9.63;;
27408;SDS011;20413;50.782;7.152;2022-08-19T08:58:54;13.40;;;10.32;;
27408;SDS011;20413;50.782;7.152;2022-08-19T09:01:28;14.50;;;10.55;;
27408;SDS011;20413;50.782;7.152;2022-08-19T09:03:54;15.05;;;9.95;;
27408;SDS011;20413;50.782;7.152;2022-08-19T09:06:23;13.77;;;8.75;;
27408;SDS011;20413;50.782;7.152;2022-08-19T09:11:36;15.00;;;11.70;;
27408;SDS011;20413;50.782;7.152;2022-08-19T09:14:18;17.15;;;11.38;;
27408;SDS011;20413;50.782;7.152;2022-08-19T09:16:45;18.33;;;9.95;;
27408;SDS011;20413;50.782;7.152;2022-08-19T09:19:11;23.17;;;12.30;;
27408;SDS011;20413;50.782;7.152;2022-08-19T09:21:36;17.35;;;12.38;;
27408;SDS011;20413;50.782;7.152;2022-08-19T09:24:03;15.02;;;11.18;;
27408;SDS011;20413;50.782;7.152;2022-08-19T09:26:30;15.45;;;11.52;;
27408;SDS011;20413;50.782;7.152;2022-08-19T09:28:59;12.93;;;9.93;;
27408;SDS011;20413;50.782;7.152;2022-08-19T09:31:27;15.57;;;10.73;;
27408;SDS011;20413;50.782;7.152;2022-08-19T09:33:54;16.35;;;11.30;;
27408;SDS011;20413;50.782;7.152;2022-08-19T09:36:23;15.02;;;12.25;;
27408;SDS011;20413;50.782;7.152;2022-08-19T09:38:52;16.60;;;12.75;;
27408;SDS011;20413;50.782;7.152;2022-08-19T09:41:19;15.77;;;11.30;;
27408;SDS011;20413;50.782;7.152;2022-08-19T09:43:47;12.95;;;10.55;;
27408;SDS011;20413;50.782;7.152;2022-08-19T09:46:16;16.10;;;12.13;;
27408;SDS011;20413;50.782;7.152;2022-08-19T09:48:46;12.57;;;10.30;;
27408;SDS011;20413;50.782;7.152;2022-08-19T09:51:14;21.30;;;14.63;;
27408;SDS011;20413;50.782;7.152;2022-08-19T09:53:43;17.23;;;12.90;;
27408;SDS011;20413;50.782;7.152;2022-08-19T09:56:10;19.10;;;15.38;;
27408;SDS011;20413;50.782;7.152;2022-08-19T09:58:36;19.85;;;15.40;;
27408;SDS011;20413;50.782;7.152;2022-08-19T10:01:03;22.08;;;14.98;;
27408;SDS011;20413;50.782;7.152;2022-08-19T10:03:30;19.92;;;12.95;;
27408;SDS011;20413;50.782;7.152;2022-08-19T10:05:58;18.13;;;12.68;;
27408;SDS011;20413;50.782;7.152;2022-08-19T10:10:52;20.50;;;14.13;;
27408;SDS011;20413;50.782;7.152;2022-08-19T10:13:19;16.70;;;13.43;;
27408;SDS011;20413;50.782;7.152;2022-08-19T10:15:51;18.25;;;12.85;;
27408;SDS011;20413;50.782;7.152;2022-08-19T10:20:45;19.97;;;13.73;;
27408;SDS011;20413;50.782;7.152;2022-08-19T10:23:12;20.85;;;14.85;;
27408;SDS011;20413;50.782;7.152;2022-08-19T10:25:38;16.50;;;13.10;;
27408;SDS011;20413;50.782;7.152;2022-08-19T10:28:04;20.70;;;14.98;;
27408;SDS011;20413;50.782;7.152;2022-08-19T10:30:31;19.13;;;14.77;;
27408;SDS011;20413;50.782;7.152;2022-08-19T10:32:57;20.15;;;14.35;;
27408;SDS011;20413;50.782;7.152;2022-08-19T10:35:22;17.45;;;13.10;;
27408;SDS011;20413;50.782;7.152;2022-08-19T10:40:15;20.40;;;15.80;;
27408;SDS011;20413;50.782;7.152;2022-08-19T10:42:41;17.73;;;13.57;;
27408;SDS011;20413;50.782;7.152;2022-08-19T10:45:07;20.15;;;14.60;;
27408;SDS011;20413;50.782;7.152;2022-08-19T10:47:34;19.90;;;14.57;;
27408;SDS011;20413;50.782;7.152;2022-08-19T10:50:00;22.17;;;16.23;;
27408;SDS011;20413;50.782;7.152;2022-08-19T10:52:45;18.88;;;12.98;;
27408;SDS011;20413;50.782;7.152;2022-08-19T10:55:14;19.23;;;15.35;;
27408;SDS011;20413;50.782;7.152;2022-08-19T10:57:58;21.27;;;15.05;;
27408;SDS011;20413;50.782;7.152;2022-08-19T11:00:24;17.65;;;13.00;;
27408;SDS011;20413;50.782;7.152;2022-08-19T11:02:51;17.88;;;13.20;;
27408;SDS011;20413;50.782;7.152;2022-08-19T11:05:17;18.63;;;14.95;;
27408;SDS011;20413;50.782;7.152;2022-08-19T11:07:44;17.27;;;14.00;;
27408;SDS011;20413;50.782;7.152;2022-08-19T11:10:10;16.48;;;12.93;;
27408;SDS011;20413;50.782;7.152;2022-08-19T11:12:39;15.55;;;13.32;;
27408;SDS011;20413;50.782;7.152;2022-08-19T11:15:06;17.35;;;13.02;;
27408;SDS011;20413;50.782;7.152;2022-08-19T11:18:10;14.90;;;10.70;;
27408;SDS011;20413;50.782;7.152;2022-08-19T11:20:35;14.82;;;11.75;;
27408;SDS011;20413;50.782;7.152;2022-08-19T11:23:01;19.88;;;11.77;;
27408;SDS011;20413;50.782;7.152;2022-08-19T11:25:27;12.68;;;10.55;;
27408;SDS011;20413;50.782;7.152;2022-08-19T11:27:52;14.20;;;11.20;;
27408;SDS011;20413;50.782;7.152;2022-08-19T11:30:18;14.27;;;10.63;;
27408;SDS011;20413;50.782;7.152;2022-08-19T11:32:43;13.73;;;11.23;;
27408;SDS011;20413;50.782;7.152;2022-08-19T11:35:09;11.73;;;9.10;;
27408;SDS011;20413;50.782;7.152;2022-08-19T11:37:36;18.77;;;10.80;;
27408;SDS011;20413;50.782;7.152;2022-08-19T11:40:04;16.20;;;11.40;;
27408;SDS011;20413;50.782;7.152;2022-08-19T11:42:31;11.93;;;9.32;;
27408;SDS011;20413;50.782;7.152;2022-08-19T11:45:15;11.43;;;9.38;;
27408;SDS011;20413;50.782;7.152;2022-08-19T11:47:41;10.15;;;8.95;;
27408;SDS011;20413;50.782;7.152;2022-08-19T11:50:06;10.98;;;9.18;;
27408;SDS011;20413;50.782;7.152;2022-08-19T11:52:32;11.98;;;8.07;;
27408;SDS011;20413;50.782;7.152;2022-08-19T11:54:58;10.13;;;7.20;;
27408;SDS011;20413;50.782;7.152;2022-08-19T11:57:23;16.15;;;7.20;;
27408;SDS011;20413;50.782;7.152;2022-08-19T11:59:50;8.55;;;7.38;;
27408;SDS011;20413;50.782;7.152;2022-08-19T12:02:17;7.22;;;6.20;;
27408;SDS011;20413;50.782;7.152;2022-08-19T12:04:43;7.57;;;6.68;;
27408;SDS011;20413;50.782;7.152;2022-08-19T12:07:09;7.68;;;6.35;;
27408;SDS011;20413;50.782;7.152;2022-08-19T12:09:35;9.05;;;6.22;;
27408;SDS011;20413;50.782;7.152;2022-08-19T12:12:00;9.27;;;6.60;;
27408;SDS011;20413;50.782;7.152;2022-08-19T12:14:27;9.25;;;5.45;;
27408;SDS011;20413;50.782;7.152;2022-08-19T12:16:55;8.05;;;5.95;;
27408;SDS011;20413;50.782;7.152;2022-08-19T12:19:21;10.05;;;6.90;;
27408;SDS011;20413;50.782;7.152;2022-08-19T12:21:47;6.80;;;5.30;;
27408;SDS011;20413;50.782;7.152;2022-08-19T12:24:12;5.10;;;4.60;;
27408;SDS011;20413;50.782;7.152;2022-08-19T12:26:38;13.70;;;5.80;;
27408;SDS011;20413;50.782;7.152;2022-08-19T12:29:04;5.20;;;4.70;;
27408;SDS011;20413;50.782;7.152;2022-08-19T12:31:29;5.22;;;4.50;;
27408;SDS011;20413;50.782;7.152;2022-08-19T12:33:55;7.30;;;4.75;;
27408;SDS011;20413;50.782;7.152;2022-08-19T12:36:21;5.72;;;5.15;;
27408;SDS011;20413;50.782;7.152;2022-08-19T12:38:48;9.57;;;6.30;;
27408;SDS011;20413;50.782;7.152;2022-08-19T12:41:14;5.50;;;4.97;;
27408;SDS011;20413;50.782;7.152;2022-08-19T12:43:42;10.27;;;6.90;;
27408;SDS011;20413;50.782;7.152;2022-08-19T12:46:08;9.38;;;5.97;;
27408;SDS011;20413;50.782;7.152;2022-08-19T12:48:34;10.23;;;6.32;;
27408;SDS011;20413;50.782;7.152;2022-08-19T12:51:01;7.20;;;6.35;;
27408;SDS011;20413;50.782;7.152;2022-08-19T12:53:32;5.95;;;5.45;;
27408;SDS011;20413;50.782;7.152;2022-08-19T12:55:57;7.47;;;5.45;;
27408;SDS011;20413;50.782;7.152;2022-08-19T12:58:24;8.00;;;6.07;;
27408;SDS011;20413;50.782;7.152;2022-08-19T13:00:51;9.25;;;5.32;;
27408;SDS011;20413;50.782;7.152;2022-08-19T13:03:17;7.47;;;5.00;;
27408;SDS011;20413;50.782;7.152;2022-08-19T13:05:42;6.72;;;5.05;;
27408;SDS011;20413;50.782;7.152;2022-08-19T13:08:08;5.78;;;5.18;;
27408;SDS011;20413;50.782;7.152;2022-08-19T13:10:34;6.95;;;5.50;;
27408;SDS011;20413;50.782;7.152;2022-08-19T13:13:05;6.28;;;5.57;;
27408;SDS011;20413;50.782;7.152;2022-08-19T13:15:33;6.93;;;6.22;;
27408;SDS011;20413;50.782;7.152;2022-08-19T13:18:00;7.57;;;6.03;;
27408;SDS011;20413;50.782;7.152;2022-08-19T13:20:26;7.10;;;5.78;;
27408;SDS011;20413;50.782;7.152;2022-08-19T13:22:52;6.25;;;5.18;;
27408;SDS011;20413;50.782;7.152;2022-08-19T13:25:19;6.28;;;5.68;;
27408;SDS011;20413;50.782;7.152;2022-08-19T13:27:46;7.55;;;5.90;;
27408;SDS011;20413;50.782;7.152;2022-08-19T13:30:13;6.03;;;5.32;;
27408;SDS011;20413;50.782;7.152;2022-08-19T13:32:58;5.38;;;4.85;;
27408;SDS011;20413;50.782;7.152;2022-08-19T13:35:37;5.47;;;4.95;;
27408;SDS011;20413;50.782;7.152;2022-08-19T13:38:03;5.63;;;4.90;;
27408;SDS011;20413;50.782;7.152;2022-08-19T13:40:30;10.60;;;6.47;;
27408;SDS011;20413;50.782;7.152;2022-08-19T13:42:58;5.70;;;4.93;;
27408;SDS011;20413;50.782;7.152;2022-08-19T13:45:24;5.88;;;5.25;;
27408;SDS011;20413;50.782;7.152;2022-08-19T13:47:53;8.95;;;5.50;;
27408;SDS011;20413;50.782;7.152;2022-08-19T13:50:21;7.90;;;6.78;;
27408;SDS011;20413;50.782;7.152;2022-08-19T13:52:52;6.03;;;5.35;;
27408;SDS011;20413;50.782;7.152;2022-08-19T13:55:19;5.38;;;4.88;;
27408;SDS011;20413;50.782;7.152;2022-08-19T13:57:45;8.80;;;5.97;;
27408;SDS011;20413;50.782;7.152;2022-08-19T14:00:15;7.22;;;6.03;;
27408;SDS011;20413;50.782;7.152;2022-08-19T14:02:43;7.18;;;6.00;;
27408;SDS011;20413;50.782;7.152;2022-08-19T14:05:11;7.47;;;6.28;;
27408;SDS011;20413;50.782;7.152;2022-08-19T14:07:40;5.75;;;5.15;;
27408;SDS011;20413;50.782;7.152;2022-08-19T14:10:06;6.40;;;5.22;;
27408;SDS011;20413;50.782;7.152;2022-08-19T14:12:33;8.88;;;4.90;;
27408;SDS011;20413;50.782;7.152;2022-08-19T14:15:00;5.00;;;4.45;;
27408;SDS011;20413;50.782;7.152;2022-08-19T14:17:27;5.05;;;4.35;;
27408;SDS011;20413;50.782;7.152;2022-08-19T14:20:00;5.05;;;4.43;;
27408;SDS011;20413;50.782;7.152;2022-08-19T14:22:29;4.43;;;4.03;;
27408;SDS011;20413;50.782;7.152;2022-08-19T14:24:56;5.43;;;4.18;;
27408;SDS011;20413;50.782;7.152;2022-08-19T14:27:22;10.02;;;5.07;;
27408;SDS011;20413;50.782;7.152;2022-08-19T14:29:48;5.63;;;4.38;;
27408;SDS011;20413;50.782;7.152;2022-08-19T14:32:15;5.70;;;4.85;;
27408;SDS011;20413;50.782;7.152;2022-08-19T14:34:40;6.43;;;5.30;;
27408;SDS011;20413;50.782;7.152;2022-08-19T14:37:06;6.80;;;5.43;;
27408;SDS011;20413;50.782;7.152;2022-08-19T14:39:33;7.60;;;4.80;;
27408;SDS011;20413;50.782;7.152;2022-08-19T14:41:58;9.60;;;5.70;;
27408;SDS011;20413;50.782;7.152;2022-08-19T14:44:24;9.60;;;4.63;;
27408;SDS011;20413;50.782;7.152;2022-08-19T14:46:49;8.82;;;5.03;;
27408;SDS011;20413;50.782;7.152;2022-08-19T14:49:15;10.02;;;5.40;;
27408;SDS011;20413;50.782;7.152;2022-08-19T14:51:41;7.78;;;5.03;;